Time;durP1;ratioP1;P1;durP2;ratioP2;P2;SDS_P1;SDS_P2;PMS_P1;PMS_P2;Temp;Humidity;BMP_temperature;BMP_pressure;BME280_temperature;BME280_humidity;BME280_pressure;Samples;Min_cycle;Max_cycle;Signal;HPM_P1;HPM_P2
2023/10/15 00:04:12;;;;;;;3.90;1.90;;;;;;;13.86;53.83;100344.78;10336742;28;20057;-54
2023/10/15 00:09:14;;;;;;;5.93;1.83;;;;;;;13.85;54.60;100349.25;10332629;28;20057;-54
2023/10/15 00:14:16;;;;;;;4.63;1.50;;;;;;;13.73;55.00;100339.69;10337982;28;20061;-54
2023/10/15 00:19:17;;;;;;;4.22;1.45;;;;;;;13.78;54.89;100353.47;10337293;28;20058;-54
2023/10/15 00:24:19;;;;;;;4.22;1.95;;;;;;;13.71;54.52;100347.88;10331019;28;20095;-54
2023/10/15 00:29:22;;;;;;;7.13;1.65;;;;;;;13.68;54.88;100364.22;10337273;28;20053;-54
2023/10/15 00:34:23;;;;;;;4.75;2.17;;;;;;;13.67;54.84;100351.81;10333012;28;20635;-54
2023/10/15 00:39:25;;;;;;;4.88;1.70;;;;;;;13.54;54.76;100330.72;10338343;28;20049;-54
2023/10/15 00:44:26;;;;;;;4.97;1.42;;;;;;;13.57;55.59;100353.63;10337610;28;20439;-55
2023/10/15 00:49:30;;;;;;;4.07;1.40;;;;;;;13.43;55.09;100345.03;10338506;28;20096;-54
2023/10/15 00:54:33;;;;;;;4.03;1.50;;;;;;;13.56;54.94;100352.78;10338081;28;20057;-55
2023/10/15 00:59:45;;;;;;;4.40;1.23;;;;;;;13.46;56.15;100348.44;10333969;28;20422;-54
2023/10/15 01:04:47;;;;;;;4.13;1.10;;;;;;;13.44;55.66;100341.38;10334910;28;20506;-54
2023/10/15 01:09:49;;;;;;;3.70;1.70;;;;;;;13.47;56.97;100340.28;10339980;28;20584;-55
2023/10/15 01:14:50;;;;;;;3.75;1.23;;;;;;;13.50;55.43;100339.16;10348954;28;20080;-55
2023/10/15 01:19:52;;;;;;;7.35;2.03;;;;;;;13.44;56.65;100329.84;10346392;28;20119;-53
2023/10/15 01:24:54;;;;;;;6.68;2.25;;;;;;;13.37;57.10;100324.22;10349001;28;20293;-54
2023/10/15 01:29:58;;;;;;;4.15;1.42;;;;;;;13.31;55.57;100327.41;10341352;28;20053;-55
2023/10/15 01:35:01;;;;;;;3.17;1.35;;;;;;;12.95;56.14;100288.84;10335497;28;20140;-54
2023/10/15 01:50:15;;;;;;;5.15;1.90;;;;;;;12.89;56.98;100324.97;10338170;28;20237;-55
2023/10/15 01:55:18;;;;;;;3.35;1.20;;;;;;;12.88;56.67;100323.25;10334807;28;20056;-55
2023/10/15 02:00:43;;;;;;;2.75;1.65;;;;;;;12.87;57.02;100329.59;10343067;28;20119;-55
2023/10/15 02:05:45;;;;;;;5.43;1.88;;;;;;;12.83;57.10;100321.00;10336988;28;20060;-55
2023/10/15 02:10:47;;;;;;;6.65;2.05;;;;;;;12.79;56.82;100318.75;10331790;28;20307;-54
2023/10/15 02:15:49;;;;;;;4.85;1.30;;;;;;;12.86;57.84;100330.56;10328238;28;20167;-54
2023/10/15 02:25:58;;;;;;;9.40;1.95;;;;;;;12.71;56.90;100327.44;10351381;28;20528;-54
2023/10/15 02:36:16;;;;;;;5.00;1.50;;;;;;;12.79;58.31;100348.13;10343491;28;20052;-55
2023/10/15 02:41:40;;;;;;;2.80;1.20;;;;;;;12.83;58.20;100341.53;10333940;28;20461;-55
2023/10/15 02:46:48;;;;;;;3.05;1.55;;;;;;;12.82;58.25;100345.19;10335453;28;20059;-55
2023/10/15 02:51:49;;;;;;;6.18;2.17;;;;;;;12.77;58.00;100336.75;10339368;28;20049;-55
2023/10/15 02:56:56;;;;;;;4.28;1.60;;;;;;;12.80;57.65;100328.44;10337930;28;20289;-58
2023/10/15 03:02:06;;;;;;;3.80;1.45;;;;;;;12.58;59.00;100311.66;10338572;28;20053;-54
2023/10/15 03:07:19;;;;;;;6.47;2.05;;;;;;;12.68;57.89;100328.53;10339145;28;20042;-54
2023/10/15 03:12:20;;;;;;;4.88;1.30;;;;;;;12.70;58.97;100328.41;10338375;28;20606;-55
2023/10/15 03:17:25;;;;;;;4.38;1.45;;;;;;;12.65;59.26;100326.16;10333297;28;20633;-54
2023/10/15 03:22:30;;;;;;;3.72;1.30;;;;;;;12.65;58.83;100326.16;10336524;28;20199;-55
2023/10/15 03:27:32;;;;;;;4.15;1.65;;;;;;;12.65;58.73;100318.13;10336370;28;20158;-56
2023/10/15 03:32:40;;;;;;;3.80;1.60;;;;;;;12.61;59.51;100329.22;10329887;28;20961;-54
2023/10/15 03:37:45;;;;;;;3.30;1.08;;;;;;;12.58;59.27;100322.34;10332529;28;20164;-55
2023/10/15 03:42:48;;;;;;;1.90;1.02;;;;;;;12.60;58.87;100336.41;10333453;28;20065;-54
2023/10/15 03:47:52;;;;;;;4.03;1.23;;;;;;;12.48;58.42;100321.47;10331836;28;20061;-55
2023/10/15 03:52:56;;;;;;;3.05;1.30;;;;;;;12.48;58.12;100337.47;10329728;28;20049;-54
2023/10/15 03:57:58;;;;;;;4.47;1.20;;;;;;;12.50;59.31;100340.84;10330509;28;20198;-55
2023/10/15 04:03:18;;;;;;;5.38;1.13;;;;;;;12.53;59.17;100329.91;10336867;28;20173;-53
2023/10/15 04:08:21;;;;;;;3.70;1.67;;;;;;;12.48;59.09;100337.47;10335944;28;20053;-54
2023/10/15 04:13:23;;;;;;;5.65;1.73;;;;;;;12.48;59.71;100345.50;10335053;28;20124;-54
2023/10/15 04:18:25;;;;;;;5.13;1.42;;;;;;;12.44;59.39;100336.03;10334470;28;20159;-54
2023/10/15 04:23:36;;;;;;;2.97;1.15;;;;;;;12.40;59.70;100337.28;10335987;28;20138;-54
2023/10/15 04:28:38;;;;;;;4.80;1.38;;;;;;;12.38;59.73;100342.75;10337142;28;20059;-54
2023/10/15 04:33:41;;;;;;;2.65;1.13;;;;;;;12.32;59.99;100332.63;10329974;28;20290;-54
2023/10/15 04:38:43;;;;;;;3.60;1.20;;;;;;;12.28;60.00;100339.19;10331091;28;20053;-53
2023/10/15 04:43:47;;;;;;;1.90;1.13;;;;;;;12.23;60.43;100344.94;10332827;28;20041;-53
2023/10/15 04:48:50;;;;;;;3.03;1.55;;;;;;;11.96;60.06;100300.13;10338022;28;20490;-54
2023/10/15 04:53:52;;;;;;;4.60;1.52;;;;;;;12.08;61.49;100343.59;10326221;28;20053;-54
2023/10/15 04:58:57;;;;;;;3.92;1.90;;;;;;;12.06;60.79;100337.53;10339523;28;20178;-55
2023/10/15 05:04:00;;;;;;;4.35;1.80;;;;;;;12.00;61.27;100342.41;10334230;28;20060;-55
2023/10/15 05:09:02;;;;;;;4.07;1.50;;;;;;;11.87;60.89;100322.22;10339283;28;20360;-54
2023/10/15 05:14:04;;;;;;;6.03;1.95;;;;;;;11.83;61.15;100332.31;10334566;28;20049;-53
2023/10/15 05:19:06;;;;;;;4.65;2.03;;;;;;;11.65;62.15;100335.53;10324517;28;20060;-55
2023/10/15 05:24:08;;;;;;;5.60;2.13;;;;;;;11.63;61.45;100333.97;10315466;28;20080;-58
2023/10/15 05:29:09;;;;;;;7.00;1.95;;;;;;;11.59;61.17;100335.19;10331218;28;20050;-54
2023/10/15 05:34:11;;;;;;;3.88;1.70;;;;;;;11.45;61.57;100336.34;10333010;28;20529;-54
2023/10/15 05:39:15;;;;;;;4.80;1.73;;;;;;;11.32;62.21;100350.69;10336471;28;20057;-55
2023/10/15 05:44:18;;;;;;;4.05;2.53;;;;;;;11.38;62.54;100360.00;10336716;28;20626;-55
2023/10/15 05:49:19;;;;;;;5.85;2.10;;;;;;;11.26;62.40;100350.34;10332566;28;20111;-54
2023/10/15 05:54:21;;;;;;;2.83;1.40;;;;;;;11.36;62.54;100366.44;10337052;28;21375;-55
2023/10/15 05:59:23;;;;;;;3.88;1.70;;;;;;;11.30;63.42;100357.97;10339904;28;20218;-54
2023/10/15 06:04:24;;;;;;;2.90;1.70;;;;;;;11.24;63.36;100352.28;10344955;28;20356;-54
2023/10/15 06:09:27;;;;;;;4.95;1.92;;;;;;;11.28;63.06;100375.88;10344335;28;20236;-54
2023/10/15 06:14:29;;;;;;;3.50;1.88;;;;;;;11.18;63.04;100371.44;10346369;28;20048;-54
2023/10/15 06:19:30;;;;;;;5.63;2.08;;;;;;;11.15;63.56;100359.22;10339201;28;20077;-54
2023/10/15 06:24:31;;;;;;;4.53;1.98;;;;;;;11.26;63.33;100384.97;10328973;28;20637;-54
2023/10/15 06:29:33;;;;;;;5.57;2.35;;;;;;;11.29;63.40;100393.59;10345746;28;20061;-53
2023/10/15 06:34:34;;;;;;;4.20;1.80;;;;;;;11.35;62.83;100391.38;10338584;28;20068;-54
2023/10/15 06:39:36;;;;;;;4.47;2.17;;;;;;;11.26;63.17;100393.84;10338390;28;20117;-54
2023/10/15 06:44:37;;;;;;;5.10;1.88;;;;;;;11.43;63.44;100388.94;10337731;28;20124;-54
2023/10/15 06:49:38;;;;;;;5.47;2.13;;;;;;;11.50;63.01;100390.97;10343379;28;20427;-55
2023/10/15 06:54:40;;;;;;;5.65;1.95;;;;;;;11.59;62.29;100400.03;10339754;28;20053;-54
2023/10/15 06:59:43;;;;;;;6.10;2.05;;;;;;;11.63;62.50;100397.97;10342569;28;20068;-54
2023/10/15 07:04:44;;;;;;;4.07;2.53;;;;;;;11.76;62.83;100401.31;10338236;28;20952;-55
2023/10/15 07:09:46;;;;;;;6.47;1.95;;;;;;;11.97;62.01;100408.53;10334558;28;20236;-57
2023/10/15 07:14:48;;;;;;;4.63;2.15;;;;;;;12.21;61.79;100410.94;10341612;28;20050;-55
2023/10/15 07:19:50;;;;;;;6.20;2.30;;;;;;;12.38;61.89;100401.47;10341501;28;20049;-54
2023/10/15 07:24:53;;;;;;;5.03;2.85;;;;;;;12.25;60.35;100411.50;10346206;28;20131;-55
2023/10/15 07:29:54;;;;;;;6.93;1.98;;;;;;;12.17;61.41;100417.50;10336965;28;20668;-55
2023/10/15 07:34:57;;;;;;;3.80;2.25;;;;;;;12.19;62.41;100410.25;10339359;28;20056;-62
2023/10/15 07:39:58;;;;;;;5.07;2.42;;;;;;;11.99;61.06;100409.22;10335559;28;20517;-55
2023/10/15 07:45:00;;;;;;;4.32;2.13;;;;;;;12.17;60.95;100414.84;10335784;28;20854;-54
2023/10/15 07:50:03;;;;;;;4.22;2.00;;;;;;;12.43;61.14;100419.78;10334489;28;20155;-53
2023/10/15 07:55:06;;;;;;;3.67;2.23;;;;;;;12.54;59.44;100412.53;10337841;28;20040;-54
2023/10/15 08:00:22;;;;;;;5.22;2.05;;;;;;;12.58;60.46;100412.28;10341840;28;20749;-54
2023/10/15 08:05:25;;;;;;;3.42;1.85;;;;;;;12.70;59.51;100411.19;10337992;28;20079;-53
2023/10/15 08:10:32;;;;;;;6.45;2.60;;;;;;;12.96;60.22;100422.28;10335935;28;20058;-55
2023/10/15 08:15:34;;;;;;;4.25;2.03;;;;;;;13.11;58.77;100412.06;10343976;28;20046;-53
2023/10/15 08:20:36;;;;;;;4.20;1.67;;;;;;;13.29;57.51;100432.81;10333264;28;20064;-54
2023/10/15 08:25:38;;;;;;;5.78;1.90;;;;;;;13.40;57.67;100444.25;10334918;28;20425;-53
2023/10/15 08:30:41;;;;;;;4.13;2.10;;;;;;;13.11;57.50;100449.50;10332827;28;20079;-53
2023/10/15 08:35:43;;;;;;;7.07;1.63;;;;;;;13.01;58.37;100440.59;10334563;28;20064;-54
2023/10/15 08:40:48;;;;;;;5.47;1.77;;;;;;;13.52;58.35;100450.31;10336656;28;21309;-54
2023/10/15 08:45:51;;;;;;;4.90;1.98;;;;;;;13.53;56.38;100448.53;10333922;28;20041;-54
2023/10/15 08:50:53;;;;;;;5.45;1.77;;;;;;;13.55;55.52;100471.44;10335721;28;20151;-53
2023/10/15 08:55:57;;;;;;;2.67;1.15;;;;;;;12.57;54.54;100469.34;10330118;28;20050;-56
2023/10/15 09:01:01;;;;;;;5.07;0.90;;;;;;;12.46;54.53;100472.91;10334116;28;20505;-54
2023/10/15 09:06:05;;;;;;;3.10;1.23;;;;;;;12.82;54.82;100473.41;10335911;28;20510;-54
2023/10/15 09:11:07;;;;;;;4.60;0.50;;;;;;;12.78;54.48;100480.00;10334207;28;20057;-55
2023/10/15 09:16:09;;;;;;;1.70;0.47;;;;;;;12.86;52.63;100472.16;10326601;28;20084;-54
2023/10/15 09:21:23;;;;;;;2.20;0.32;;;;;;;13.01;52.43;100488.69;10332195;28;20046;-53
2023/10/15 09:26:25;;;;;;;1.47;0.60;;;;;;;13.05;51.20;100493.63;10333136;28;20037;-54
2023/10/15 09:31:26;;;;;;;3.28;0.50;;;;;;;13.02;51.30;100485.03;10328946;28;20099;-54
2023/10/15 09:36:35;;;;;;;1.30;0.47;;;;;;;13.94;50.49;100484.03;10324129;28;20064;-54
2023/10/15 09:41:37;;;;;;;5.78;1.67;;;;;;;14.70;49.44;100485.13;10336611;28;20126;-57
2023/10/15 09:46:38;;;;;;;2.42;0.60;;;;;;;15.06;46.07;100475.44;10335252;28;20087;-55
2023/10/15 09:51:40;;;;;;;1.33;0.50;;;;;;;14.79;45.22;100482.44;10330092;28;20057;-55
2023/10/15 09:56:45;;;;;;;3.40;0.55;;;;;;;14.18;47.05;100502.38;10333708;28;20908;-55
2023/10/15 10:01:53;;;;;;;2.90;1.30;;;;;;;13.81;46.84;100499.50;10336806;28;20057;-55
2023/10/15 10:07:20;;;;;;;1.60;0.73;;;;;;;13.54;49.64;100501.88;10337952;28;20056;-54
2023/10/15 10:12:43;;;;;;;3.05;0.40;;;;;;;13.47;48.41;100503.38;10335531;28;20053;-54
2023/10/15 10:17:44;;;;;;;3.40;1.13;;;;;;;13.52;48.76;100509.16;10337893;28;20057;-55
2023/10/15 10:22:57;;;;;;;1.67;0.73;;;;;;;13.67;49.43;100501.59;10337391;28;20499;-55
2023/10/15 10:28:07;;;;;;;3.60;0.40;;;;;;;14.05;49.33;100499.13;10337591;28;20285;-54
2023/10/15 10:33:46;;;;;;;3.25;1.15;;;;;;;13.74;47.14;100505.41;10339104;28;20128;-54
2023/10/15 10:39:13;;;;;;;2.33;1.80;;;;;;;14.47;48.57;100505.03;10337310;28;20411;-55
2023/10/15 10:44:24;;;;;;;1.15;0.35;;;;;;;15.51;44.06;100498.78;10336888;28;20061;-55
2023/10/15 10:49:30;;;;;;;2.20;0.45;;;;;;;16.33;43.45;100492.59;10333693;28;20114;-56
2023/10/15 10:54:32;;;;;;;;;;;;;;;16.91;42.45;100508.16;10330677;28;20784;-55
2023/10/15 10:59:35;;;;;;;3.75;1.17;;;;;;;17.74;40.48;100503.97;10341165;28;19925;-55
2023/10/15 11:04:39;;;;;;;2.33;0.45;;;;;;;17.94;38.92;100501.00;10339518;28;20127;-53
2023/10/15 11:09:40;;;;;;;2.03;0.43;;;;;;;17.59;40.43;100506.44;10337046;28;20374;-54
2023/10/15 11:14:42;;;;;;;1.88;0.40;;;;;;;18.46;37.78;100508.81;10340147;28;20049;-54
2023/10/15 11:19:44;;;;;;;1.77;0.52;;;;;;;19.03;36.92;100497.13;10333785;28;20224;-55
2023/10/15 11:24:46;;;;;;;1.70;0.52;;;;;;;19.06;37.87;100507.56;10336366;28;20049;-54
2023/10/15 11:29:48;;;;;;;3.05;0.47;;;;;;;18.90;36.56;100489.56;10339314;28;20079;-54
2023/10/15 11:34:50;;;;;;;1.80;0.30;;;;;;;17.90;38.34;100497.00;10317378;28;20603;-54
2023/10/15 11:39:51;;;;;;;2.22;0.30;;;;;;;17.51;39.29;100503.75;10331134;28;20049;-54
2023/10/15 11:44:56;;;;;;;0.93;0.40;;;;;;;16.39;40.33;100513.44;10334755;28;20052;-54
2023/10/15 11:49:59;;;;;;;1.52;0.52;;;;;;;15.88;41.69;100497.03;10339525;28;20383;-54
2023/10/15 11:55:02;;;;;;;1.48;0.60;;;;;;;15.59;47.31;100537.44;10330386;28;20966;-53
2023/10/15 12:00:09;;;;;;;0.93;0.40;;;;;;;15.50;50.07;100555.28;10325742;28;20056;-54
2023/10/15 12:05:11;;;;;;;2.60;1.13;;;;;;;14.90;52.33;100544.91;10331276;28;20057;-54
2023/10/15 12:10:14;;;;;;;1.73;0.50;;;;;;;14.89;55.26;100545.88;10327098;28;20164;-53
2023/10/15 12:15:16;;;;;;;0.97;0.40;;;;;;;14.67;55.72;100535.34;10337105;28;20516;-54
2023/10/15 12:20:17;;;;;;;1.58;0.50;;;;;;;14.26;55.65;100539.13;10333707;28;20396;-53
2023/10/15 12:25:21;;;;;;;1.05;0.32;;;;;;;14.25;56.51;100553.53;10325821;28;20053;-53
2023/10/15 12:30:23;;;;;;;2.13;0.40;;;;;;;14.12;56.54;100553.78;10328884;28;20065;-54
2023/10/15 12:35:27;;;;;;;0.85;0.30;;;;;;;15.41;54.52;100562.38;10315059;28;20063;-57
2023/10/15 12:40:31;;;;;;;;;;;;;;;17.65;49.49;100556.97;10326058;28;20057;-52
2023/10/15 12:45:33;;;;;;;0.70;0.20;;;;;;;19.05;45.56;100561.69;10324838;28;20027;-53
2023/10/15 12:50:35;;;;;;;1.00;0.20;;;;;;;20.49;41.20;100543.44;10335294;28;20077;-53
2023/10/15 12:55:37;;;;;;;1.42;0.38;;;;;;;21.48;39.21;100537.94;10335596;28;20125;-53
2023/10/15 13:00:43;;;;;;;1.15;1.00;;;;;;;22.15;37.18;100549.56;10311317;28;20141;-54
2023/10/15 13:05:45;;;;;;;1.10;0.38;;;;;;;22.95;34.77;100544.88;10329783;28;20049;-54
2023/10/15 13:10:47;;;;;;;1.15;0.22;;;;;;;23.98;34.22;100536.03;10329507;28;20060;-52
2023/10/15 13:15:49;;;;;;;1.30;0.22;;;;;;;24.66;32.12;100545.97;10338271;28;20792;-54
2023/10/15 13:20:50;;;;;;;2.25;0.40;;;;;;;26.22;29.94;100542.59;10343597;28;20927;-55
2023/10/15 13:25:52;;;;;;;2.45;0.55;;;;;;;26.71;29.18;100546.47;10337967;28;20544;-53
2023/10/15 13:30:54;;;;;;;0.60;0.20;;;;;;;27.15;27.29;100558.22;10333319;28;20537;-54
2023/10/15 13:35:55;;;;;;;0.93;0.47;;;;;;;26.25;28.16;100561.25;10338414;28;20550;-54
2023/10/15 13:40:57;;;;;;;1.38;0.63;;;;;;;25.46;28.90;100560.56;10337203;28;20096;-53
2023/10/15 13:45:58;;;;;;;1.40;0.43;;;;;;;24.04;30.59;100549.88;10339931;28;20060;-53
2023/10/15 13:51:00;;;;;;;1.23;0.52;;;;;;;23.02;31.15;100576.66;10331742;28;20057;-55
2023/10/15 13:56:03;;;;;;;1.02;0.20;;;;;;;20.55;35.14;100582.44;10331135;28;20160;-54
2023/10/15 14:01:04;;;;;;;0.57;0.25;;;;;;;19.00;38.38;100591.88;10341879;28;20068;-53
2023/10/15 14:06:07;;;;;;;1.48;0.60;;;;;;;18.55;40.59;100587.81;10338744;28;20142;-53
2023/10/15 14:11:10;;;;;;;1.90;0.30;;;;;;;17.98;39.84;100594.78;10340423;28;20111;-54
2023/10/15 14:16:13;;;;;;;3.33;0.40;;;;;;;17.09;42.77;100601.38;10336826;28;20632;-54
2023/10/15 14:21:16;;;;;;;1.30;0.30;;;;;;;16.74;45.31;100613.88;10331632;28;20053;-53
2023/10/15 14:26:17;;;;;;;0.77;0.10;;;;;;;21.41;36.66;100598.41;10338716;28;20260;-53
2023/10/15 14:31:19;;;;;;;1.85;0.50;;;;;;;22.36;33.60;100610.31;10333420;28;20057;-54
2023/10/15 14:36:25;;;;;;;1.42;0.40;;;;;;;19.45;38.22;100613.06;10331907;28;20061;-54
2023/10/15 14:41:26;;;;;;;1.27;0.40;;;;;;;18.04;40.83;100622.09;10322850;28;20081;-55
2023/10/15 14:46:28;;;;;;;1.33;0.30;;;;;;;18.25;41.06;100624.31;10318534;28;20053;-53
2023/10/15 14:51:30;;;;;;;1.38;0.57;;;;;;;17.23;43.01;100626.84;10328772;28;20362;-55
2023/10/15 14:56:32;;;;;;;1.85;0.40;;;;;;;16.62;43.08;100634.75;10339403;28;20171;-55
2023/10/15 15:01:34;;;;;;;1.88;0.50;;;;;;;16.43;45.22;100633.03;10341933;28;20775;-55
2023/10/15 15:06:36;;;;;;;1.83;0.30;;;;;;;16.14;44.52;100635.91;10334576;28;20172;-54
2023/10/15 15:11:37;;;;;;;1.77;0.40;;;;;;;15.35;46.91;100654.16;10335996;28;20191;-54
2023/10/15 15:16:39;;;;;;;1.45;0.68;;;;;;;15.29;47.85;100649.38;10337070;28;20064;-54
2023/10/15 15:21:40;;;;;;;1.40;0.63;;;;;;;15.29;46.50;100652.06;10344419;28;20193;-55
2023/10/15 15:26:42;;;;;;;1.52;0.40;;;;;;;15.12;47.10;100642.94;10346208;28;20046;-54
2023/10/15 15:31:44;;;;;;;1.67;0.95;;;;;;;15.02;45.57;100661.69;10348986;28;20120;-55
2023/10/15 15:36:46;;;;;;;0.60;0.47;;;;;;;14.00;48.71;100653.94;10348460;28;20055;-54
2023/10/15 15:41:47;;;;;;;3.20;2.22;;;;;;;14.46;49.44;100656.00;10342664;28;20072;-54
2023/10/15 15:46:50;;;;;;;3.13;2.25;;;;;;;14.71;48.41;100661.81;10341278;28;20046;-53
2023/10/15 15:51:51;;;;;;;3.55;1.73;;;;;;;14.27;47.64;100651.44;10337783;28;20048;-53
2023/10/15 15:56:53;;;;;;;2.10;1.50;;;;;;;14.06;50.78;100651.53;10340546;28;20777;-55
2023/10/15 16:01:55;;;;;;;2.65;0.90;;;;;;;14.34;49.74;100665.16;10341298;28;20072;-54
2023/10/15 16:06:57;;;;;;;2.92;1.05;;;;;;;14.11;48.79;100649.31;10341799;28;20641;-54
2023/10/15 16:11:58;;;;;;;2.65;1.80;;;;;;;14.08;49.55;100672.81;10346520;28;20107;-54
2023/10/15 16:17:00;;;;;;;2.35;1.30;;;;;;;13.98;51.11;100691.53;10343695;28;20057;-55
2023/10/15 16:22:02;;;;;;;1.30;0.90;;;;;;;14.01;51.95;100695.78;10343414;28;20053;-55
2023/10/15 16:27:03;;;;;;;2.30;1.60;;;;;;;13.68;50.51;100649.59;10342390;28;20121;-54
2023/10/15 16:32:05;;;;;;;2.05;1.27;;;;;;;14.08;51.50;100724.53;10340823;28;20466;-53
2023/10/15 16:37:06;;;;;;;2.83;1.83;;;;;;;14.07;52.37;100722.00;10339599;28;20050;-54
2023/10/15 16:42:09;;;;;;;26.52;17.50;;;;;;;14.08;51.84;100723.69;10333558;28;20591;-55
2023/10/15 16:47:11;;;;;;;3.55;2.72;;;;;;;13.95;52.39;100727.44;10334347;28;20059;-54
2023/10/15 16:52:12;;;;;;;5.35;2.97;;;;;;;13.75;52.74;100731.84;10334004;28;20053;-54
2023/10/15 16:57:14;;;;;;;3.72;1.70;;;;;;;13.56;53.37;100737.09;10337651;28;20177;-54
2023/10/15 17:02:15;;;;;;;3.85;1.40;;;;;;;13.67;53.94;100757.56;10332596;28;20210;-54
2023/10/15 17:07:18;;;;;;;4.25;1.52;;;;;;;13.47;51.85;100753.94;10332462;28;20061;-56
2023/10/15 17:12:20;;;;;;;1.52;0.93;;;;;;;13.07;52.58;100737.53;10338986;28;20118;-54
2023/10/15 17:17:23;;;;;;;2.40;1.02;;;;;;;13.27;53.76;100764.44;10336178;28;20525;-54
2023/10/15 17:22:24;;;;;;;2.28;1.38;;;;;;;13.36;53.42;100782.41;10344328;28;20033;-55
2023/10/15 17:27:26;;;;;;;2.38;0.90;;;;;;;13.35;53.57;100786.06;10344412;28;20597;-54
2023/10/15 17:32:27;;;;;;;3.33;1.52;;;;;;;13.29;53.66;100786.53;10349103;28;20540;-54
2023/10/15 17:37:29;;;;;;;2.15;1.13;;;;;;;13.20;54.33;100781.97;10348828;28;20054;-53
2023/10/15 17:42:30;;;;;;;1.55;1.25;;;;;;;13.18;54.77;100783.91;10344545;28;20060;-54
2023/10/15 17:47:32;;;;;;;1.40;1.30;;;;;;;13.18;54.47;100783.91;10345130;28;20049;-54
2023/10/15 17:52:37;;;;;;;7.28;4.80;;;;;;;12.98;54.91;100762.34;10347203;28;20052;-54
2023/10/15 17:57:39;;;;;;;2.78;1.80;;;;;;;13.04;54.81;100790.41;10343229;28;20041;-54
2023/10/15 18:02:41;;;;;;;2.03;1.30;;;;;;;12.90;54.51;100787.03;10347621;28;20046;-53
2023/10/15 18:07:44;;;;;;;3.60;1.25;;;;;;;12.62;54.72;100780.41;10348643;28;20256;-53
2023/10/15 18:12:46;;;;;;;1.80;1.40;;;;;;;12.73;55.71;100815.13;10349229;28;20062;-53
2023/10/15 18:17:49;;;;;;;3.45;2.22;;;;;;;12.82;55.30;100820.69;10351064;28;20200;-56
2023/10/15 18:22:51;;;;;;;3.80;1.30;;;;;;;12.81;55.12;100830.53;10345015;28;20046;-53
2023/10/15 18:27:52;;;;;;;2.65;1.70;;;;;;;12.73;55.31;100831.16;10345568;28;20046;-54
2023/10/15 18:32:54;;;;;;;4.63;2.95;;;;;;;12.72;56.05;100826.78;10328834;28;20954;-53
2023/10/15 18:37:55;;;;;;;2.83;2.25;;;;;;;12.73;56.86;100820.47;10343444;28;20119;-54
2023/10/15 18:42:58;;;;;;;4.95;3.33;;;;;;;12.69;56.13;100818.16;10351625;28;20054;-53
2023/10/15 18:48:00;;;;;;;5.15;2.88;;;;;;;12.44;56.20;100816.59;10350638;28;20171;-53
2023/10/15 18:53:02;;;;;;;3.42;2.30;;;;;;;12.43;56.22;100836.25;10349313;28;20132;-53
2023/10/15 18:58:04;;;;;;;3.53;1.65;;;;;;;12.33;55.07;100847.66;10350198;28;20159;-54
2023/10/15 19:03:07;;;;;;;4.75;3.17;;;;;;;12.40;54.93;100840.03;10346282;28;20068;-55
2023/10/15 19:08:10;;;;;;;4.13;2.97;;;;;;;12.37;55.58;100843.78;10348221;28;21439;-54
2023/10/15 19:13:11;;;;;;;3.35;2.50;;;;;;;12.34;54.85;100854.72;10345291;28;20148;-53
2023/10/15 19:18:13;;;;;;;1.88;1.67;;;;;;;12.27;55.19;100861.50;10346213;28;20159;-53
2023/10/15 19:23:15;;;;;;;3.78;2.60;;;;;;;12.17;54.95;100847.16;10348494;28;20063;-55
2023/10/15 19:28:17;;;;;;;5.57;2.67;;;;;;;12.16;55.54;100866.81;10343794;28;20053;-54
2023/10/15 19:33:18;;;;;;;3.75;2.10;;;;;;;12.19;55.39;100877.28;10327190;28;20170;-54
2023/10/15 19:38:20;;;;;;;2.25;1.50;;;;;;;12.10;56.06;100867.28;10348155;28;20049;-54
2023/10/15 19:43:21;;;;;;;2.58;1.30;;;;;;;12.18;56.04;100887.06;10340873;28;20064;-55
2023/10/15 19:48:23;;;;;;;2.53;1.33;;;;;;;12.14;55.73;100890.09;10348803;28;20049;-55
2023/10/15 19:53:26;;;;;;;2.40;1.10;;;;;;;12.01;55.96;100891.06;10346840;28;20049;-55
2023/10/15 19:58:28;;;;;;;1.83;1.30;;;;;;;11.92;55.85;100891.72;10342574;28;20188;-53
2023/10/15 20:03:29;;;;;;;5.63;1.48;;;;;;;11.83;56.42;100889.75;10351572;28;20049;-54
2023/10/15 20:08:31;;;;;;;2.63;1.73;;;;;;;11.90;56.58;100911.47;10344413;28;20061;-54
2023/10/15 20:13:34;;;;;;;3.10;2.05;;;;;;;11.89;57.53;100915.09;10345118;28;20171;-54
2023/10/15 20:18:37;;;;;;;3.22;2.20;;;;;;;11.86;57.77;100913.53;10344005;28;20064;-54
2023/10/15 20:23:38;;;;;;;3.47;2.20;;;;;;;11.85;57.74;100909.16;10347280;28;20053;-55
2023/10/15 20:28:40;;;;;;;1.92;1.73;;;;;;;11.81;58.76;100921.03;10345550;28;20053;-54
2023/10/15 20:33:42;;;;;;;2.85;1.90;;;;;;;11.79;57.93;100912.28;10343029;28;20083;-54
2023/10/15 20:38:43;;;;;;;3.50;1.98;;;;;;;11.64;58.83;100899.13;10348332;28;20046;-54
2023/10/15 20:43:46;;;;;;;2.83;2.10;;;;;;;11.74;58.96;100915.31;10348415;28;20163;-54
2023/10/15 20:48:48;;;;;;;4.15;1.80;;;;;;;11.77;59.06;100917.75;10339979;28;20053;-54
2023/10/15 20:53:50;;;;;;;3.80;2.45;;;;;;;11.55;59.71;100915.81;10343027;28;20139;-54
2023/10/15 20:58:52;;;;;;;2.85;2.10;;;;;;;11.50;58.85;100918.00;10347712;28;20410;-53
2023/10/15 21:03:53;;;;;;;2.78;2.08;;;;;;;11.49;59.50;100921.59;10346734;28;20084;-55
2023/10/15 21:08:57;;;;;;;3.38;1.98;;;;;;;11.44;60.10;100910.41;10347193;28;20120;-55
2023/10/15 21:13:59;;;;;;;4.23;1.70;;;;;;;11.43;60.40;100906.06;10349678;28;20046;-54
2023/10/15 21:19:01;;;;;;;3.55;1.75;;;;;;;11.47;59.98;100924.38;10349045;28;20418;-55
2023/10/15 21:24:03;;;;;;;3.03;2.17;;;;;;;11.46;60.81;100905.84;10345755;28;20728;-55
2023/10/15 21:29:04;;;;;;;2.33;1.90;;;;;;;11.44;59.99;100908.63;10355169;28;20050;-54
2023/10/15 21:34:08;;;;;;;1.90;1.67;;;;;;;11.45;60.06;100906.78;10355964;28;20786;-55
2023/10/15 21:39:10;;;;;;;3.00;1.87;;;;;;;11.45;60.09;100904.13;10356077;28;20053;-53
2023/10/15 21:44:12;;;;;;;2.03;1.83;;;;;;;11.38;60.90;100892.22;10356016;28;20049;-54
2023/10/15 21:49:17;;;;;;;2.13;1.63;;;;;;;11.26;60.66;100884.16;10357976;28;20714;-54
2023/10/15 21:54:18;;;;;;;;;;;;;;;11.29;60.26;100904.44;10351282;28;20076;-54
2023/10/15 21:59:20;;;;;;;3.33;1.52;;;;;;;11.26;60.87;100905.50;10349703;28;20027;-54
2023/10/15 22:04:23;;;;;;;1.83;1.35;;;;;;;11.26;60.00;100896.63;10347731;28;20146;-54
2023/10/15 22:09:26;;;;;;;1.70;1.43;;;;;;;11.23;60.54;100900.38;10346241;28;20053;-55
2023/10/15 22:14:30;;;;;;;3.17;1.50;;;;;;;11.16;60.85;100904.44;10351581;28;20300;-55
2023/10/15 22:19:33;;;;;;;2.50;1.60;;;;;;;11.08;61.39;100885.50;10350819;28;20088;-54
2023/10/15 22:24:39;;;;;;;2.72;1.70;;;;;;;11.13;61.46;100891.34;10351934;28;20474;-54
2023/10/15 22:29:44;;;;;;;3.70;1.50;;;;;;;11.02;61.09;100873.50;10351674;28;20425;-54
2023/10/15 22:34:45;;;;;;;1.80;1.55;;;;;;;11.09;60.87;100892.53;10353930;28;20574;-54
2023/10/15 22:39:47;;;;;;;3.60;1.95;;;;;;;11.00;61.63;100888.72;10351811;28;22258;-54
2023/10/15 22:44:49;;;;;;;2.83;1.70;;;;;;;10.99;61.70;100886.16;10350269;28;20053;-54
2023/10/15 22:49:53;;;;;;;3.05;2.00;;;;;;;10.93;61.76;100872.34;10352615;28;20125;-55
2023/10/15 22:54:55;;;;;;;3.92;1.90;;;;;;;10.94;61.47;100879.38;10346338;28;20057;-55
2023/10/15 22:59:56;;;;;;;2.35;1.50;;;;;;;10.89;61.56;100880.66;10349436;28;20061;-53
2023/10/15 23:04:58;;;;;;;3.28;1.85;;;;;;;10.79;62.04;100877.78;10350831;28;20061;-54
2023/10/15 23:10:00;;;;;;;2.45;1.88;;;;;;;10.78;62.29;100881.44;10351377;28;20105;-54
2023/10/15 23:15:07;;;;;;;2.65;1.48;;;;;;;10.78;61.79;100884.94;10352717;28;20061;-54
2023/10/15 23:20:25;;;;;;;2.25;1.40;;;;;;;10.81;62.22;100883.88;10354430;28;20142;-54
2023/10/15 23:25:28;;;;;;;3.35;1.55;;;;;;;10.78;62.22;100881.44;10351777;28;20192;-54
2023/10/15 23:30:30;;;;;;;3.35;2.20;;;;;;;10.79;61.75;100891.09;10352420;28;20060;-57
2023/10/15 23:35:32;;;;;;;3.55;1.55;;;;;;;10.70;62.41;100889.09;10347997;28;20606;-53